KRSW/RSW METAR and TAF weather

Enter ICAO airport designator
Station Type Date Time Source
KRSW METAR 2019/10/15 07:53 UTC NOAA

KRSW 150753Z AUTO 07003KT 10SM FEW060 23/21 A3004 RMK AO2 SLP171 T02280211


Station Type Date Time Source
KRSW Decoded METAR 2019/10/15 07:53 UTC NOAA

FORT MYERS SW FL INTERNATIONAL AIRPORT , FL, United States (KRSW) 26-32N 081-46W 9M
Oct 15, 2019 - 03:53 AM EDT / 2019.10.15 0753 UTC
Wind: from the ENE (070 degrees) at 3 MPH (3 KT):0
Visibility: 10 mile(s):0
Sky conditions: mostly clear
Temperature: 73.0 F (22.8 C)
Dew Point: 70.0 F (21.1 C)
Relative Humidity: 90%
Pressure (altimeter): 30.04 in. Hg (1017 hPa)
ob: KRSW 150753Z AUTO 07003KT 10SM FEW060 23/21 A3004 RMK AO2 SLP171 T02280211
cycle: 8

Station Type Date Time Source
KRSW TAF 2019/10/15 06:42 UTC NOAA

TAF KRSW 150538Z 1506/1606 VRB04KT P6SM FEW030 SCT250
FM151500 12006KT P6SM FEW030 SCT250
FM152100 24007KT P6SM SCT050 BKN250
FM160300 VRB04KT P6SM SCT050 BKN250

Example: see airport list